createdAt,value
2018-11-22T00:00:43.676Z,271.27
2018-11-22T00:03:13.293Z,301.33
2018-11-22T00:05:43.398Z,295.77
2018-11-22T00:08:13.027Z,289.40
2018-11-22T00:10:42.624Z,286.33
2018-11-22T00:13:12.264Z,280.60
2018-11-22T00:15:41.934Z,316.13
2018-11-22T00:18:11.987Z,327.60
2018-11-22T00:20:41.600Z,318.53
2018-11-22T00:23:11.285Z,315.23
2018-11-22T00:25:40.941Z,309.30
2018-11-22T00:28:10.661Z,302.27
2018-11-22T00:30:40.287Z,298.50
2018-11-22T00:33:09.935Z,301.57
2018-11-22T00:35:39.597Z,285.43
2018-11-22T00:38:09.198Z,300.43
2018-11-22T00:40:38.822Z,286.77
2018-11-22T00:43:08.494Z,280.93
2018-11-22T00:45:38.115Z,316.83
2018-11-22T00:48:07.802Z,329.13
2018-11-22T00:50:37.446Z,323.20
2018-11-22T00:53:07.150Z,299.93
2018-11-22T00:55:36.786Z,293.27
2018-11-22T00:58:06.849Z,345.70
2018-11-22T01:00:36.440Z,322.43
2018-11-22T01:03:06.095Z,316.23
2018-11-22T01:05:35.723Z,309.50
2018-11-22T01:08:06.056Z,304.73
2018-11-22T01:10:35.769Z,294.43
2018-11-22T01:13:05.401Z,302.90
2018-11-22T01:15:35.075Z,281.97
2018-11-22T01:18:04.869Z,285.53
2018-11-22T01:20:34.612Z,290.77
2018-11-22T01:23:04.610Z,293.70
2018-11-22T01:25:34.272Z,291.03
2018-11-22T01:28:04.841Z,262.57
2018-11-22T01:30:34.546Z,270.83
2018-11-22T01:33:23.143Z,265.13
2018-11-22T01:36:11.740Z,272.90
2018-11-22T01:39:00.348Z,270.07
2018-11-22T01:41:41.780Z,217.73
2018-11-22T01:44:23.376Z,202.93
2018-11-22T01:47:04.603Z,185.73
2018-11-22T01:49:45.657Z,181.97
2018-11-22T01:52:26.809Z,189.43
2018-11-22T01:55:08.346Z,190.10
2018-11-22T01:57:49.604Z,173.03
2018-11-22T02:00:31.056Z,166.97
2018-11-22T02:03:12.652Z,162.03
2018-11-22T02:05:53.916Z,135.33
2018-11-22T02:08:34.893Z,138.33
2018-11-22T02:11:15.641Z,128.33
2018-11-22T02:13:56.997Z,122.37
2018-11-22T02:16:38.729Z,113.17
2018-11-22T02:19:19.952Z,113.67
2018-11-22T02:22:01.336Z,106.90
2018-11-22T02:24:42.565Z,101.90
2018-11-22T02:27:24.106Z,99.03
2018-11-22T02:30:05.415Z,96.20
2018-11-22T02:32:47.531Z,94.07
2018-11-22T02:35:28.750Z,85.70
2018-11-22T02:38:09.757Z,88.73
2018-11-22T02:40:50.550Z,85.57
2018-11-22T02:43:32.138Z,81.50
2018-11-22T02:46:12.843Z,76.67
2018-11-22T02:48:54.026Z,76.37
2018-11-22T02:51:34.670Z,69.47
2018-11-22T02:54:16.026Z,68.50
2018-11-22T02:56:57.635Z,69.50
2018-11-22T02:59:38.938Z,68.73
2018-11-22T03:02:19.977Z,65.87
2018-11-22T03:05:01.226Z,64.93
2018-11-22T03:07:42.872Z,61.27
2018-11-22T03:10:23.827Z,59.73
2018-11-22T03:13:05.093Z,60.13
2018-11-22T03:15:47.015Z,59.13
2018-11-22T03:18:27.808Z,56.27
2018-11-22T03:21:09.163Z,54.97
2018-11-22T03:23:49.899Z,51.70
2018-11-22T03:26:29.557Z,51.33
2018-11-22T03:29:18.157Z,50.80
2018-11-22T03:32:06.747Z,47.93
2018-11-22T03:34:55.331Z,48.37
2018-11-22T03:37:43.932Z,46.23
2018-11-22T03:40:32.528Z,47.63
2018-11-22T03:43:39.821Z,46.60
2018-11-22T03:46:28.412Z,41.23
2018-11-22T03:49:16.998Z,44.97
2018-11-22T03:52:05.651Z,42.30
2018-11-22T03:54:54.241Z,37.30
2018-11-22T03:57:43.196Z,43.00
2018-11-22T04:00:31.806Z,38.47
2018-11-22T04:03:20.468Z,39.03
2018-11-22T04:09:16.885Z,36.90
2018-11-22T04:12:05.474Z,37.07
2018-11-22T04:14:54.117Z,38.27
2018-11-22T04:17:42.874Z,34.80
2018-11-22T04:20:32.620Z,33.83
2018-11-22T04:23:21.253Z,35.10
2018-11-22T04:26:09.895Z,34.47
2018-11-22T04:32:06.390Z,36.43
2018-11-22T04:34:54.952Z,32.77
2018-11-22T04:37:43.843Z,31.23
2018-11-22T04:40:33.144Z,30.70
2018-11-22T04:43:21.724Z,33.67
2018-11-22T04:52:12.520Z,32.73
2018-11-22T04:55:01.116Z,32.67
2018-11-22T04:57:49.692Z,34.33
2018-11-22T05:00:38.289Z,31.17
2018-11-22T05:03:26.878Z,33.20
2018-11-22T05:06:15.476Z,32.47
2018-11-22T05:09:04.404Z,31.90
2018-11-22T05:11:52.981Z,32.33
2018-11-22T05:14:41.587Z,30.33
2018-11-22T05:17:30.234Z,32.83
2018-11-22T05:20:20.019Z,33.23
2018-11-22T05:23:08.621Z,28.33
2018-11-22T05:25:57.202Z,31.37
2018-11-22T05:28:45.835Z,30.43
2018-11-22T05:31:34.488Z,32.53
2018-11-22T05:37:17.355Z,29.57
2018-11-22T05:40:07.610Z,29.40
2018-11-22T05:42:56.488Z,29.50
2018-11-22T05:45:45.099Z,32.17
2018-11-22T05:48:33.673Z,30.07
2018-11-22T05:51:22.625Z,31.07
2018-11-22T05:54:11.258Z,31.63
2018-11-22T05:56:40.961Z,32.33
2018-11-22T05:59:29.546Z,30.07
2018-11-22T06:02:18.140Z,29.50
2018-11-22T06:05:07.088Z,30.43
2018-11-22T06:07:55.896Z,30.63
2018-11-22T06:10:45.011Z,30.20
2018-11-22T06:13:33.661Z,29.53
2018-11-22T06:16:03.671Z,31.20
2018-11-22T06:21:46.458Z,30.47
2018-11-22T06:24:35.041Z,27.37
2018-11-22T06:27:23.685Z,28.20
2018-11-22T06:30:15.334Z,31.07
2018-11-22T06:33:04.568Z,30.50
2018-11-22T06:35:53.246Z,27.97
2018-11-22T06:41:49.653Z,31.37
2018-11-22T06:44:38.767Z,30.53
2018-11-22T06:50:23.269Z,30.50
2018-11-22T06:53:11.846Z,31.70
2018-11-22T06:56:00.454Z,30.60
2018-11-22T06:58:49.039Z,28.90
2018-11-22T07:01:37.627Z,29.93
2018-11-22T07:04:26.283Z,29.70
2018-11-22T07:07:14.876Z,29.93
2018-11-22T07:10:03.702Z,28.13
2018-11-22T07:12:52.450Z,31.20
2018-11-22T07:15:41.031Z,30.43
2018-11-22T07:18:29.633Z,29.87
2018-11-22T07:21:18.260Z,30.30
2018-11-22T07:27:01.623Z,31.20
2018-11-22T07:29:50.201Z,28.40
2018-11-22T07:32:38.824Z,30.70
2018-11-22T07:35:29.027Z,30.73
2018-11-22T07:38:17.642Z,29.53
2018-11-22T07:41:06.875Z,34.03
2018-11-22T07:43:47.873Z,28.40
2018-11-22T07:46:28.816Z,31.70
2018-11-22T07:49:10.234Z,30.57
2018-11-22T07:51:51.763Z,30.30
2018-11-22T07:54:33.148Z,29.47
2018-11-22T07:57:14.030Z,30.87
2018-11-22T07:59:54.747Z,34.40
2018-11-22T08:02:36.447Z,35.27
2018-11-22T08:05:18.529Z,55.10
2018-11-22T08:08:00.591Z,110.87
2018-11-22T08:10:41.525Z,103.93
2018-11-22T08:13:23.041Z,95.77
2018-11-22T08:16:03.750Z,100.00
2018-11-22T08:18:44.769Z,98.43
2018-11-22T08:21:26.076Z,98.00
2018-11-22T08:24:07.305Z,93.57
2018-11-22T08:26:48.819Z,90.77
2018-11-22T08:29:30.608Z,97.60
2018-11-22T08:32:11.717Z,97.83
2018-11-22T08:34:52.798Z,87.10
2018-11-22T08:37:33.546Z,115.07
2018-11-22T08:40:22.449Z,164.57
2018-11-22T08:43:03.904Z,148.00
2018-11-22T08:45:44.907Z,140.37
2018-11-22T08:48:24.583Z,135.80
2018-11-22T08:51:13.231Z,157.37
2018-11-22T08:56:56.406Z,173.87
2018-11-22T08:59:45.424Z,165.00
2018-11-22T09:02:34.034Z,161.73
2018-11-22T09:05:41.418Z,158.87
2018-11-22T09:08:30.013Z,161.63
2018-11-22T09:11:18.669Z,163.10
2018-11-22T09:14:07.357Z,216.13
2018-11-22T09:16:56.374Z,186.33
2018-11-22T09:19:44.993Z,191.07
2018-11-22T09:22:34.004Z,168.67
2018-11-22T09:25:23.045Z,202.10
2018-11-22T09:28:11.664Z,185.93
2018-11-22T09:31:00.232Z,178.77
2018-11-22T09:36:37.810Z,173.87
2018-11-22T09:39:26.824Z,170.40
2018-11-22T09:42:15.529Z,161.93
2018-11-22T09:45:04.110Z,149.63
2018-11-22T09:47:53.283Z,149.93
2018-11-22T09:53:36.375Z,149.77
2018-11-22T09:56:25.302Z,146.43
2018-11-22T10:05:03.547Z,155.47
2018-11-22T10:07:52.027Z,146.00
2018-11-22T10:10:41.028Z,145.87
2018-11-22T10:13:29.640Z,145.80
2018-11-22T10:16:18.271Z,149.00
2018-11-22T10:19:06.910Z,152.43
2018-11-22T10:21:55.561Z,142.63
2018-11-22T10:27:53.615Z,149.57
2018-11-22T10:30:42.218Z,148.13
2018-11-22T10:33:30.813Z,142.30
2018-11-22T10:39:27.178Z,150.47
2018-11-22T10:42:15.826Z,132.37
2018-11-22T10:45:04.888Z,138.90
2018-11-22T10:47:54.769Z,147.37
2018-11-22T10:50:43.386Z,146.67
2018-11-22T10:53:32.327Z,138.50
2018-11-22T10:56:21.304Z,144.30
2018-11-22T10:59:09.952Z,139.00
2018-11-22T11:02:17.375Z,137.73
2018-11-22T11:05:24.836Z,132.43
2018-11-22T11:08:15.006Z,132.03
2018-11-22T11:11:03.785Z,135.70
2018-11-22T11:13:52.445Z,132.43
2018-11-22T11:16:41.014Z,138.23
2018-11-22T11:19:29.721Z,140.17
2018-11-22T11:22:18.314Z,143.57
2018-11-22T11:25:07.690Z,145.20
2018-11-22T11:30:51.511Z,146.67
2018-11-22T11:33:21.544Z,140.23
2018-11-22T12:15:53.576Z,103.67
2018-11-22T12:18:21.992Z,101.73
2018-11-22T12:20:50.383Z,115.97
2018-11-22T12:23:18.776Z,118.53
2018-11-22T12:25:47.153Z,114.60
2018-11-22T12:28:16.280Z,124.00
2018-11-22T12:30:44.736Z,122.87
2018-11-22T12:33:20.164Z,136.67
2018-11-22T12:35:54.557Z,128.23
2018-11-22T12:38:28.354Z,126.87
2018-11-22T12:40:56.733Z,127.17
2018-11-22T12:43:25.128Z,124.03
2018-11-22T12:45:53.532Z,128.33
2018-11-22T12:48:21.990Z,123.27
2018-11-22T12:50:50.389Z,129.23
2018-11-22T12:53:18.866Z,118.97
2018-11-22T12:55:47.275Z,118.40
2018-11-22T12:58:15.651Z,156.70
2018-11-22T13:00:44.086Z,158.27
2018-11-22T13:03:12.995Z,152.23
2018-11-22T13:05:41.449Z,142.00
2018-11-22T13:08:09.905Z,128.30
2018-11-22T13:10:38.308Z,128.40
2018-11-22T13:13:07.080Z,118.87
2018-11-22T13:15:35.487Z,116.17
2018-11-22T13:18:03.885Z,111.53
2018-11-22T13:20:32.881Z,110.20
2018-11-22T13:23:01.280Z,112.37
2018-11-22T13:25:29.676Z,111.90
2018-11-22T13:27:58.050Z,112.43
2018-11-22T13:30:28.657Z,109.10
2018-11-22T13:32:57.759Z,91.47
2018-11-22T13:35:26.148Z,106.03
2018-11-22T13:37:55.636Z,117.27
2018-11-22T13:40:24.259Z,142.40
2018-11-22T13:42:53.390Z,121.57
2018-11-22T13:45:23.759Z,128.47
2018-11-22T13:47:53.377Z,146.60
2018-11-22T13:50:27.568Z,146.53
2018-11-22T13:52:59.957Z,138.53
2018-11-22T13:55:28.361Z,131.70
2018-11-22T13:57:56.940Z,124.87
2018-11-22T14:00:26.764Z,111.83
2018-11-22T14:02:57.551Z,111.63
2018-11-22T14:05:25.940Z,162.53
2018-11-22T14:07:54.376Z,151.87
2018-11-22T14:10:23.113Z,122.97
2018-11-22T14:12:51.802Z,104.40
2018-11-22T14:15:25.597Z,89.90
2018-11-22T14:17:55.525Z,102.40
2018-11-22T14:20:25.532Z,113.80
2018-11-22T14:22:53.919Z,130.23
2018-11-22T14:25:22.306Z,123.57
2018-11-22T14:27:51.196Z,119.57
2018-11-22T14:30:20.997Z,116.73
2018-11-22T14:32:50.291Z,111.10
2018-11-22T14:35:19.813Z,115.70
2018-11-22T14:37:48.214Z,115.17
2018-11-22T14:40:19.132Z,107.37
2018-11-22T14:42:48.425Z,106.50
2018-11-22T14:45:17.228Z,110.87
2018-11-22T14:47:46.898Z,96.70
2018-11-22T14:50:26.014Z,105.30
2018-11-22T14:53:01.074Z,100.20
2018-11-22T14:55:29.487Z,91.80
2018-11-22T14:57:57.941Z,91.77
2018-11-22T15:00:26.396Z,85.00
2018-11-22T15:02:54.780Z,85.60
2018-11-22T15:05:23.177Z,107.53
2018-11-22T15:07:51.557Z,89.83
2018-11-22T15:10:19.996Z,134.40
2018-11-22T15:12:48.865Z,150.23
2018-11-22T15:15:19.063Z,162.33
2018-11-22T15:17:47.521Z,151.23
2018-11-22T15:20:20.020Z,150.40
2018-11-22T15:22:49.418Z,126.10
2018-11-22T15:25:19.540Z,125.53
2018-11-22T15:27:48.043Z,116.37
2018-11-22T15:30:20.993Z,109.10
2018-11-22T15:32:49.402Z,107.30
2018-11-22T15:35:19.183Z,101.67
2018-11-22T15:37:47.985Z,125.07
2018-11-22T15:40:17.804Z,143.77
2018-11-22T15:42:48.455Z,174.00
2018-11-22T15:45:17.348Z,179.87
2018-11-22T15:47:46.008Z,162.47
2018-11-22T15:50:15.757Z,149.83
2018-11-22T15:52:44.400Z,147.47
2018-11-22T15:55:20.451Z,140.80
2018-11-22T15:57:43.112Z,138.60
2018-11-22T16:00:14.059Z,133.83
2018-11-22T16:02:43.400Z,132.10
2018-11-22T16:05:12.765Z,121.53
2018-11-22T16:07:41.954Z,119.67
2018-11-22T16:10:14.986Z,127.57
2018-11-22T16:12:44.545Z,132.00
2018-11-22T16:15:17.997Z,142.97
2018-11-22T16:17:46.427Z,134.80
2018-11-22T16:20:14.829Z,144.50
2018-11-22T16:22:43.351Z,141.27
2018-11-22T16:25:12.913Z,146.60
2018-11-22T16:27:41.562Z,131.77
2018-11-22T16:30:15.696Z,125.13
2018-11-22T16:32:44.479Z,124.33
2018-11-22T16:35:14.213Z,129.40
2018-11-22T16:37:43.604Z,124.43
2018-11-22T16:40:14.855Z,125.37
2018-11-22T16:42:44.352Z,123.57
2018-11-22T16:45:19.047Z,137.47
2018-11-22T16:47:47.558Z,186.37
2018-11-22T16:50:17.305Z,191.63
2018-11-22T16:52:45.907Z,178.07
2018-11-22T16:55:14.722Z,170.70
2018-11-22T16:57:44.475Z,156.23
2018-11-22T17:00:22.881Z,160.13
2018-11-22T17:02:52.829Z,150.07
2018-11-22T17:05:21.419Z,151.73
2018-11-22T17:07:49.953Z,144.97
2018-11-22T17:10:19.761Z,141.60
2018-11-22T17:12:49.797Z,139.37
2018-11-22T17:15:19.584Z,132.37
2018-11-22T17:17:48.504Z,130.87
2018-11-22T17:20:18.010Z,129.60
2018-11-22T17:22:47.105Z,118.33
2018-11-22T17:25:19.990Z,229.60
2018-11-22T17:27:49.705Z,150.07
2018-11-22T17:30:20.436Z,382.97
2018-11-22T17:32:48.884Z,442.03
2018-11-22T17:35:20.840Z,408.00
2018-11-22T17:37:49.626Z,450.40
2018-11-22T17:40:22.333Z,416.50
2018-11-22T17:42:50.903Z,386.23
2018-11-22T17:45:23.764Z,401.43
2018-11-22T17:47:52.625Z,382.97
2018-11-22T17:50:22.152Z,372.43
2018-11-22T17:52:50.561Z,387.47
2018-11-22T17:55:20.476Z,331.77
2018-11-22T17:57:48.892Z,357.27
2018-11-22T18:00:19.590Z,333.30
2018-11-22T18:02:49.625Z,378.70
2018-11-22T18:05:18.124Z,345.80
2018-11-22T18:07:46.670Z,318.53
2018-11-22T18:10:18.858Z,321.13
2018-11-22T18:12:47.940Z,282.17
2018-11-22T18:15:17.405Z,278.50
2018-11-22T18:17:46.109Z,255.07
2018-11-22T18:20:17.064Z,246.20
2018-11-22T18:22:46.149Z,260.20
2018-11-22T18:25:16.105Z,241.20
2018-11-22T18:27:44.568Z,220.80
2018-11-22T18:30:30.207Z,218.67
2018-11-22T18:33:00.474Z,195.90
2018-11-22T18:35:28.881Z,200.03
2018-11-22T18:37:57.397Z,205.93
2018-11-22T18:40:27.143Z,193.90
2018-11-22T18:42:56.643Z,166.33
2018-11-22T18:45:32.350Z,180.83
2018-11-22T18:48:02.004Z,170.83
2018-11-22T18:50:31.617Z,161.30
2018-11-22T18:53:00.104Z,157.53
2018-11-22T18:55:28.560Z,163.57
2018-11-22T18:57:56.966Z,153.33
2018-11-22T19:00:26.618Z,167.70
2018-11-22T19:02:56.504Z,147.67
2018-11-22T19:05:25.077Z,140.67
2018-11-22T19:07:54.258Z,134.93
2018-11-22T19:10:24.985Z,135.63
2018-11-22T19:12:54.704Z,130.27
2018-11-22T19:15:24.424Z,119.27
2018-11-22T19:17:53.396Z,128.07
2018-11-22T19:20:24.452Z,117.47
2018-11-22T19:22:53.454Z,122.57
2018-11-22T19:25:22.412Z,123.53
2018-11-22T19:27:51.351Z,126.30
2018-11-22T19:30:22.449Z,122.90
2018-11-22T19:32:51.988Z,119.47
2018-11-22T19:35:22.093Z,112.63
2018-11-22T19:37:50.883Z,110.97
2018-11-22T19:40:21.503Z,96.67
2018-11-22T19:42:51.392Z,101.77
2018-11-22T19:45:20.860Z,96.63
2018-11-22T19:47:49.513Z,95.50
2018-11-22T19:50:19.434Z,90.97
2018-11-22T19:52:48.617Z,91.07
2018-11-22T19:55:19.789Z,114.73
2018-11-22T19:57:49.884Z,115.17
2018-11-22T20:00:19.094Z,100.87
2018-11-22T20:02:47.986Z,97.47
2018-11-22T20:05:17.607Z,95.20
2018-11-22T20:07:47.317Z,89.47
2018-11-22T20:10:19.352Z,86.70
2018-11-22T20:12:47.789Z,84.03
2018-11-22T20:15:16.419Z,84.93
2018-11-22T20:17:45.636Z,81.97
2018-11-22T20:20:15.213Z,76.47
2018-11-22T20:22:43.651Z,77.33
2018-11-22T20:25:12.081Z,74.93
2018-11-22T20:27:40.950Z,69.77
2018-11-22T20:30:15.008Z,69.07
2018-11-22T20:32:43.890Z,73.77
2018-11-22T20:35:14.468Z,78.60
2018-11-22T20:37:43.632Z,78.93
2018-11-22T20:40:13.417Z,74.97
2018-11-22T20:42:42.090Z,80.60
2018-11-22T20:45:12.353Z,65.07
2018-11-22T20:47:41.621Z,65.17
2018-11-22T20:50:15.457Z,62.37
2018-11-22T20:52:44.658Z,63.47
2018-11-22T20:55:15.751Z,68.23
2018-11-22T20:57:44.985Z,74.13
2018-11-22T21:00:15.516Z,69.87
2018-11-22T21:02:44.100Z,78.60
2018-11-22T21:05:13.080Z,74.43
2018-11-22T21:07:42.179Z,70.93
2018-11-22T21:10:15.893Z,64.77
2018-11-22T21:12:44.340Z,67.40
2018-11-22T21:15:15.549Z,64.33
2018-11-22T21:17:44.716Z,62.53
2018-11-22T21:20:15.138Z,64.87
2018-11-22T21:22:43.565Z,58.73
2018-11-22T21:25:14.719Z,58.83
2018-11-22T21:27:43.132Z,58.57
2018-11-22T21:30:15.713Z,62.63
2018-11-22T21:32:45.023Z,63.70
2018-11-22T21:35:13.697Z,83.97
2018-11-22T21:37:42.420Z,98.17
2018-11-22T21:40:11.592Z,96.10
2018-11-22T21:42:40.081Z,112.63
2018-11-22T21:45:13.208Z,113.10
2018-11-22T21:47:42.314Z,115.30
2018-11-22T21:50:12.128Z,109.50
2018-11-22T21:52:40.540Z,98.20
2018-11-22T21:55:11.370Z,97.67
2018-11-22T21:57:40.897Z,99.33
2018-11-22T22:00:14.034Z,97.27
2018-11-22T22:02:42.458Z,89.40
2018-11-22T22:05:11.342Z,88.27
2018-11-22T22:07:40.149Z,82.37
2018-11-22T22:10:08.559Z,94.37
2018-11-22T22:12:37.063Z,97.90
2018-11-22T22:15:07.877Z,89.97
2018-11-22T22:17:36.328Z,103.93
2018-11-22T22:20:06.675Z,117.40
2018-11-22T22:22:35.108Z,115.40
2018-11-22T22:25:03.481Z,118.53
2018-11-22T22:27:32.024Z,122.77
2018-11-22T22:30:00.438Z,106.67
2018-11-22T22:32:28.897Z,116.33
2018-11-22T22:34:57.284Z,113.43
2018-11-22T22:37:25.868Z,111.97
2018-11-22T22:39:54.258Z,118.90
2018-11-22T22:42:22.661Z,151.67
2018-11-22T22:44:51.070Z,161.67
2018-11-22T22:47:19.499Z,163.33
2018-11-22T22:49:48.291Z,151.10
2018-11-22T22:52:16.717Z,175.80
2018-11-22T22:54:45.684Z,186.40
2018-11-22T22:57:14.140Z,181.13
2018-11-22T22:59:42.527Z,178.80
2018-11-22T23:02:10.962Z,171.87
2018-11-22T23:04:39.369Z,170.30
2018-11-22T23:07:07.765Z,162.63
2018-11-22T23:09:36.184Z,160.10
2018-11-22T23:12:04.814Z,203.47
2018-11-22T23:14:33.242Z,197.00
2018-11-22T23:17:01.653Z,186.57
2018-11-22T23:19:30.078Z,180.93
2018-11-22T23:21:58.521Z,189.30
2018-11-22T23:24:27.055Z,181.57
2018-11-22T23:26:55.473Z,183.63
2018-11-22T23:29:23.881Z,182.30
2018-11-22T23:31:52.358Z,170.47
2018-11-22T23:34:20.789Z,167.97
2018-11-22T23:36:49.246Z,173.00
2018-11-22T23:39:17.664Z,167.00
2018-11-22T23:41:46.062Z,161.90
2018-11-22T23:44:14.610Z,164.50
2018-11-22T23:46:43.045Z,159.83
2018-11-22T23:49:11.584Z,169.13
2018-11-22T23:51:47.713Z,184.07
2018-11-22T23:54:16.128Z,236.67
2018-11-22T23:56:44.685Z,231.57
2018-11-22T23:59:13.141Z,212.90
